Time;durP1;ratioP1;P1;durP2;ratioP2;P2;SDS_P1;SDS_P2;PMS_P1;PMS_P2;Temp;Humidity;BMP_temperature;BMP_pressure;BME280_temperature;BME280_humidity;BME280_pressure;Samples;Min_cycle;Max_cycle;Signal;HPM_P1;HPM_P2
2023/08/22 00:01:43;;;;;;;;;;;;;;;;;;;;;
2023/08/22 00:04:31;;;;;;;12.25;3.88;;;20.40;99.90;;;;;;5025816;28;45017;-77
2023/08/22 00:07:04;;;;;;;12.95;4.38;;;20.50;99.90;;;;;;5077204;28;46308;-76
2023/08/22 00:09:33;;;;;;;10.10;4.07;;;22.20;99.90;;;;;;5087550;28;44972;-76
2023/08/22 00:12:00;;;;;;;6.45;4.28;;;20.10;99.90;;;;;;5087925;28;45077;-76
2023/08/22 00:14:35;;;;;;;11.52;4.80;;;20.30;99.90;;;;;;5087440;28;45327;-77
2023/08/22 00:17:02;;;;;;;11.32;5.43;;;20.60;99.90;;;;;;5087433;28;47233;-76
2023/08/22 00:19:30;;;;;;;11.63;4.32;;;20.80;99.90;;;;;;5087194;28;45248;-76
2023/08/22 00:21:57;;;;;;;8.75;4.47;;;19.80;99.90;;;;;;5087188;28;45046;-76
2023/08/22 00:24:28;;;;;;;16.92;4.93;;;20.30;99.90;;;;;;5087687;28;45209;-76
2023/08/22 00:26:55;;;;;;;11.35;4.70;;;19.70;99.90;;;;;;5087460;28;48493;-76
2023/08/22 00:29:22;;;;;;;14.15;4.50;;;19.70;99.90;;;;;;5087446;28;45240;-76
2023/08/22 00:31:49;;;;;;;13.57;5.63;;;19.70;99.90;;;;;;5087604;28;45165;-76
2023/08/22 00:34:16;;;;;;;11.50;4.80;;;20.40;99.90;;;;;;5087574;28;45419;-76
2023/08/22 00:36:44;;;;;;;9.60;4.70;;;19.60;99.90;;;;;;5078786;28;45684;-76
2023/08/22 00:39:15;;;;;;;14.88;4.88;;;21.40;99.90;;;;;;5097448;27;45545;-76
2023/08/22 00:41:42;;;;;;;12.57;5.35;;;19.60;99.90;;;;;;5107877;27;45069;-76
2023/08/22 00:44:15;;;;;;;8.95;4.65;;;19.60;99.90;;;;;;5107671;27;45010;-76
2023/08/22 00:46:42;;;;;;;13.80;5.22;;;19.80;99.90;;;;;;5107835;27;47942;-76
2023/08/22 00:49:18;;;;;;;13.20;5.03;;;19.50;99.90;;;;;;5107424;27;45124;-76
2023/08/22 00:51:52;;;;;;;7.50;4.18;;;20.00;99.90;;;;;;5108005;27;45091;-76
2023/08/22 00:54:28;;;;;;;10.20;5.03;;;21.70;99.90;;;;;;5108135;27;45109;-76
2023/08/22 00:56:58;;;;;;;13.40;5.30;;;21.50;99.90;;;;;;5107727;27;47523;-76
2023/08/22 00:59:27;;;;;;;10.07;4.72;;;20.00;99.90;;;;;;5107023;27;45974;-76
2023/08/22 01:01:55;;;;;;;6.63;4.20;;;20.30;99.90;;;;;;5107230;27;45082;-76
2023/08/22 01:04:22;;;;;;;11.95;4.47;;;21.20;99.90;;;;;;5107596;27;45122;-76
2023/08/22 01:06:57;;;;;;;13.50;4.75;;;20.10;99.90;;;;;;5106987;27;48422;-76
2023/08/22 01:09:30;;;;;;;7.63;4.20;;;19.90;99.90;;;;;;5107713;27;45560;-76
2023/08/22 01:12:04;;;;;;;14.40;5.13;;;19.80;99.90;;;;;;5107389;27;44959;-76
2023/08/22 01:14:33;;;;;;;9.27;5.05;;;19.80;99.90;;;;;;5107901;27;44942;-76
2023/08/22 01:17:00;;;;;;;9.57;4.88;;;19.80;99.90;;;;;;5107096;27;48159;-76
2023/08/22 01:19:27;;;;;;;10.98;4.57;;;19.70;99.90;;;;;;5107279;27;45006;-76
2023/08/22 01:21:56;;;;;;;8.88;4.90;;;19.70;99.90;;;;;;5107288;27;45060;-76
2023/08/22 01:24:23;;;;;;;11.73;5.05;;;19.70;99.90;;;;;;5107615;27;44936;-76
2023/08/22 01:26:49;;;;;;;12.50;5.03;;;19.70;99.90;;;;;;5107264;27;47561;-76
2023/08/22 01:29:23;;;;;;;7.85;4.22;;;19.80;99.90;;;;;;5106965;27;45039;-76
2023/08/22 01:32:01;;;;;;;12.50;5.13;;;19.80;99.90;;;;;;5110094;27;44979;-76
2023/08/22 01:34:31;;;;;;;15.63;5.22;;;19.80;99.90;;;;;;5107665;27;45015;-76
2023/08/22 01:37:00;;;;;;;9.98;4.70;;;19.70;99.90;;;;;;5106812;27;47910;-76
2023/08/22 01:39:29;;;;;;;8.55;4.43;;;19.70;99.90;;;;;;5106350;27;45178;-76
2023/08/22 01:41:57;;;;;;;9.40;5.13;;;19.70;99.90;;;;;;5106745;27;45237;-76
2023/08/22 01:44:24;;;;;;;14.60;5.07;;;19.70;99.90;;;;;;5107002;27;45070;-76
2023/08/22 01:46:51;;;;;;;8.38;4.90;;;19.70;99.90;;;;;;5106761;27;47597;-75
2023/08/22 01:49:18;;;;;;;11.70;5.32;;;19.70;99.90;;;;;;5106770;27;45046;-75
2023/08/22 01:51:44;;;;;;;10.18;5.32;;;19.60;99.90;;;;;;5107001;27;45110;-75
2023/08/22 01:54:13;;;;;;;7.60;4.65;;;19.60;99.90;;;;;;5106940;27;45408;-76
2023/08/22 01:56:39;;;;;;;14.27;4.85;;;19.60;99.90;;;;;;5106587;27;45208;-75
2023/08/22 01:59:06;;;;;;;8.15;4.25;;;19.60;99.90;;;;;;5106488;27;45254;-75
2023/08/22 02:01:33;;;;;;;13.80;4.00;;;19.60;99.90;;;;;;5106566;27;45030;-75
2023/08/22 02:04:03;;;;;;;10.73;4.55;;;19.50;99.90;;;;;;5106770;27;45066;-75
2023/08/22 02:06:30;;;;;;;8.95;4.63;;;19.50;99.90;;;;;;5106489;27;48193;-75
2023/08/22 02:08:57;;;;;;;11.45;4.80;;;19.50;99.90;;;;;;5106839;27;45090;-75
2023/08/22 02:11:25;;;;;;;11.90;4.65;;;19.50;99.90;;;;;;5106383;27;45100;-75
2023/08/22 02:13:52;;;;;;;10.82;5.47;;;19.50;99.90;;;;;;5107326;27;45105;-75
2023/08/22 02:16:19;;;;;;;8.70;5.03;;;19.50;99.90;;;;;;5109798;27;46593;-75
2023/08/22 02:18:45;;;;;;;10.45;5.45;;;19.50;99.90;;;;;;5109948;27;45220;-76
2023/08/22 02:21:12;;;;;;;10.05;4.60;;;19.50;99.90;;;;;;5110172;27;45067;-76
2023/08/22 02:23:39;;;;;;;13.82;5.03;;;19.50;99.90;;;;;;5113468;27;45090;-75
2023/08/22 02:26:06;;;;;;;13.57;4.82;;;19.50;99.90;;;;;;5109969;27;46323;-75
2023/08/22 02:28:34;;;;;;;10.77;4.95;;;19.60;99.90;;;;;;5109943;27;44987;-75
2023/08/22 02:31:02;;;;;;;10.18;5.20;;;19.60;99.90;;;;;;5109743;27;45130;-75
2023/08/22 02:33:29;;;;;;;13.98;5.40;;;19.60;99.90;;;;;;5109946;27;45090;-75
2023/08/22 02:35:55;;;;;;;11.63;5.68;;;19.60;99.90;;;;;;5109309;27;46236;-75
2023/08/22 02:38:23;;;;;;;8.90;4.82;;;19.60;99.90;;;;;;5109386;27;45074;-75
2023/08/22 02:40:49;;;;;;;10.00;4.85;;;19.50;99.90;;;;;;5109666;27;45011;-74
2023/08/22 02:43:16;;;;;;;10.35;5.38;;;19.50;99.90;;;;;;5109497;27;45195;-75
2023/08/22 02:45:46;;;;;;;10.55;4.75;;;19.40;99.90;;;;;;5109463;27;47916;-75
2023/08/22 02:48:13;;;;;;;9.35;5.18;;;19.40;99.90;;;;;;5109620;27;46297;-75
2023/08/22 02:50:39;;;;;;;11.38;5.75;;;19.30;99.90;;;;;;5109428;27;44959;-75
2023/08/22 02:53:07;;;;;;;11.57;4.95;;;19.40;99.90;;;;;;5109622;27;45104;-74
2023/08/22 02:55:33;;;;;;;11.65;5.28;;;19.30;99.90;;;;;;5109179;27;47658;-74
2023/08/22 02:58:00;;;;;;;9.85;5.28;;;19.20;99.90;;;;;;5109411;27;45153;-75
2023/08/22 03:00:27;;;;;;;11.80;4.90;;;19.20;99.90;;;;;;5109484;27;45095;-75
2023/08/22 03:02:55;;;;;;;14.85;5.65;;;19.20;99.90;;;;;;5109279;27;45295;-75
2023/08/22 03:05:22;;;;;;;16.17;5.18;;;19.00;99.90;;;;;;5109144;27;48619;-75
2023/08/22 03:07:49;;;;;;;11.77;5.35;;;18.90;99.90;;;;;;5109214;27;45816;-75
2023/08/22 03:10:16;;;;;;;13.57;5.32;;;18.90;99.90;;;;;;5109117;27;44971;-75
2023/08/22 03:12:42;;;;;;;9.07;4.90;;;18.80;99.90;;;;;;5109098;27;45131;-75
2023/08/22 03:15:09;;;;;;;9.80;5.68;;;18.80;99.90;;;;;;5111730;27;45199;-74
2023/08/22 03:17:36;;;;;;;13.73;5.03;;;18.80;99.90;;;;;;5109138;27;45127;-75
2023/08/22 03:20:06;;;;;;;9.48;5.70;;;18.80;99.90;;;;;;5109054;27;45255;-75
2023/08/22 03:22:32;;;;;;;11.85;4.95;;;18.90;99.90;;;;;;5108923;27;44999;-75
2023/08/22 03:24:59;;;;;;;13.38;4.97;;;19.00;99.90;;;;;;5107884;27;46533;-75
2023/08/22 03:27:26;;;;;;;8.85;4.78;;;19.00;99.90;;;;;;5108451;27;45254;-75
2023/08/22 03:29:53;;;;;;;11.15;5.57;;;18.90;99.90;;;;;;5108684;27;45111;-74
2023/08/22 03:32:19;;;;;;;7.38;5.20;;;18.80;99.90;;;;;;5108749;27;45146;-75
2023/08/22 03:34:46;;;;;;;11.27;5.60;;;18.90;99.90;;;;;;5108552;27;46633;-75
2023/08/22 03:37:14;;;;;;;12.93;5.75;;;18.90;99.90;;;;;;5108932;27;45089;-74
2023/08/22 03:39:41;;;;;;;10.88;5.45;;;19.00;99.90;;;;;;5108108;27;45210;-74
2023/08/22 03:42:08;;;;;;;13.15;5.47;;;19.10;99.90;;;;;;5108801;27;45260;-74
2023/08/22 03:44:34;;;;;;;11.57;5.43;;;19.10;99.90;;;;;;5108370;27;46384;-74
2023/08/22 03:47:02;;;;;;;9.10;4.68;;;19.10;99.90;;;;;;5108585;27;45546;-75
2023/08/22 03:49:29;;;;;;;10.07;5.13;;;19.20;99.90;;;;;;5108443;27;45040;-75
2023/08/22 03:51:55;;;;;;;15.45;5.03;;;19.30;99.90;;;;;;5108515;27;44980;-75
2023/08/22 03:54:23;;;;;;;13.75;4.93;;;19.30;99.90;;;;;;5108199;27;46401;-74
2023/08/22 03:56:51;;;;;;;9.13;4.18;;;19.20;99.90;;;;;;5108108;27;45840;-75
2023/08/22 03:59:17;;;;;;;10.55;4.68;;;19.20;99.90;;;;;;5108512;27;44959;-75
2023/08/22 04:01:44;;;;;;;9.25;4.47;;;19.00;99.90;;;;;;5108423;27;45028;-75
2023/08/22 04:04:14;;;;;;;7.22;4.45;;;19.00;99.90;;;;;;5108211;27;47282;-74
2023/08/22 04:06:40;;;;;;;8.93;4.57;;;19.00;99.90;;;;;;5111036;27;45023;-74
2023/08/22 04:09:07;;;;;;;11.23;4.38;;;19.00;99.90;;;;;;5108712;27;45025;-74
2023/08/22 04:11:36;;;;;;;8.98;4.40;;;19.00;99.90;;;;;;5108760;27;45017;-74
2023/08/22 04:14:03;;;;;;;13.65;4.68;;;18.90;99.90;;;;;;5108131;27;48525;-74
2023/08/22 04:16:29;;;;;;;15.25;5.70;;;18.90;99.90;;;;;;5093798;27;45221;-75
2023/08/22 04:18:56;;;;;;;10.02;4.90;;;19.00;99.90;;;;;;5085557;27;45216;-74
2023/08/22 04:21:23;;;;;;;11.80;5.20;;;18.90;99.90;;;;;;5093347;27;45022;-75
2023/08/22 04:23:49;;;;;;;9.95;5.10;;;18.90;99.90;;;;;;5092573;27;48088;-75
2023/08/22 04:26:16;;;;;;;13.00;4.97;;;18.80;99.90;;;;;;5094277;27;45335;-75
2023/08/22 04:28:44;;;;;;;19.48;5.00;;;18.80;99.90;;;;;;5093526;27;45165;-71
2023/08/22 04:31:11;;;;;;;13.73;4.80;;;18.80;99.90;;;;;;5083948;27;45308;-74
2023/08/22 04:33:38;;;;;;;11.35;4.80;;;18.90;99.90;;;;;;5080953;27;47555;-74
2023/08/22 04:36:06;;;;;;;12.75;5.50;;;18.70;99.90;;;;;;5081542;27;45169;-75
2023/08/22 04:38:32;;;;;;;12.80;5.60;;;18.70;99.90;;;;;;5084250;27;45142;-75
2023/08/22 04:40:59;;;;;;;16.70;5.75;;;18.80;99.90;;;;;;5087012;28;45249;-76
2023/08/22 04:43:26;;;;;;;11.20;5.63;;;18.80;99.90;;;;;;5087063;28;45093;-77
2023/08/22 04:45:54;;;;;;;12.25;5.70;;;18.80;99.90;;;;;;5087219;28;45044;-76
2023/08/22 04:48:24;;;;;;;17.60;5.18;;;18.90;99.90;;;;;;5087287;28;45040;-77
2023/08/22 05:00:39;;;;;;;9.93;4.30;;;19.20;99.90;;;;;;5086556;28;45119;-74
2023/08/22 05:03:55;;;;;;;12.30;5.20;;;19.10;99.90;;;;;;5086676;28;45111;-78
2023/08/22 05:06:23;;;;;;;15.65;6.20;;;19.70;99.90;;;;;;5072574;27;46245;-71
2023/08/22 05:08:50;;;;;;;16.23;6.25;;;18.40;99.90;;;;;;5076050;27;46160;-75
2023/08/22 05:11:16;;;;;;;11.52;6.13;;;18.30;99.90;;;;;;5083820;27;45275;-75
2023/08/22 05:13:43;;;;;;;14.07;6.22;;;18.80;99.90;;;;;;5084831;27;45305;-75
2023/08/22 05:16:10;;;;;;;9.10;5.25;;;18.90;99.90;;;;;;5085285;28;45822;-75
2023/08/22 05:18:37;;;;;;;12.45;6.43;;;19.00;99.90;;;;;;5086234;28;45075;-77
2023/08/22 05:21:05;;;;;;;11.68;5.50;;;19.00;99.90;;;;;;5086752;28;45039;-77
2023/08/22 05:23:33;;;;;;;14.45;6.15;;;19.10;99.90;;;;;;5087094;28;45190;-77
2023/08/22 05:25:59;;;;;;;11.85;6.20;;;19.20;99.90;;;;;;5086399;28;46664;-77
2023/08/22 05:28:26;;;;;;;14.43;5.90;;;19.20;99.90;;;;;;5086749;28;45214;-77
2023/08/22 05:30:53;;;;;;;11.68;5.57;;;19.60;99.90;;;;;;5086754;28;45194;-77
2023/08/22 05:33:20;;;;;;;11.77;5.78;;;19.60;99.90;;;;;;5086789;28;45196;-77
2023/08/22 05:35:46;;;;;;;11.35;5.55;;;19.50;99.90;;;;;;5086108;28;46517;-77
2023/08/22 05:38:13;;;;;;;12.88;5.63;;;19.50;99.90;;;;;;5086252;28;45090;-76
2023/08/22 05:40:41;;;;;;;11.73;5.57;;;19.70;99.90;;;;;;5086212;28;45180;-76
2023/08/22 05:43:08;;;;;;;15.75;7.00;;;19.80;99.90;;;;;;5086239;28;45147;-76
2023/08/22 05:45:35;;;;;;;12.40;6.18;;;19.70;99.90;;;;;;5086433;28;47176;-76
2023/08/22 05:48:01;;;;;;;11.10;5.53;;;19.70;99.90;;;;;;5086367;28;45482;-76
2023/08/22 05:50:28;;;;;;;9.63;5.00;;;19.60;99.90;;;;;;5092782;28;45004;-75
2023/08/22 05:52:54;;;;;;;11.20;5.47;;;19.60;99.90;;;;;;5090229;28;44999;-75
2023/08/22 05:55:21;;;;;;;11.65;5.80;;;19.50;99.90;;;;;;5089854;28;47655;-75
2023/08/22 05:57:49;;;;;;;9.50;5.78;;;19.50;99.90;;;;;;5089607;28;45249;-76
2023/08/22 06:00:17;;;;;;;13.40;5.65;;;19.50;99.90;;;;;;5089877;28;45091;-75
2023/08/22 06:02:44;;;;;;;10.60;5.10;;;19.50;99.90;;;;;;5089865;28;45077;-75
2023/08/22 06:05:11;;;;;;;11.10;5.35;;;19.50;99.90;;;;;;5089371;28;48177;-75
2023/08/22 06:07:37;;;;;;;12.73;6.03;;;19.50;99.90;;;;;;5089486;28;45033;-75
2023/08/22 06:10:05;;;;;;;16.20;6.57;;;19.60;99.90;;;;;;5089722;28;45123;-75
2023/08/22 06:12:32;;;;;;;12.82;6.15;;;19.60;99.90;;;;;;5089808;28;45094;-75
2023/08/22 06:15:00;;;;;;;10.82;7.03;;;19.60;99.90;;;;;;5089085;28;48254;-75
2023/08/22 06:17:27;;;;;;;15.60;6.93;;;19.70;99.90;;;;;;5089435;28;45121;-75
2023/08/22 06:19:54;;;;;;;14.95;7.07;;;19.80;99.90;;;;;;5089596;28;45083;-75
2023/08/22 06:22:20;;;;;;;16.15;7.47;;;19.80;99.90;;;;;;5089519;28;45104;-75
2023/08/22 06:24:47;;;;;;;15.40;7.60;;;19.80;99.90;;;;;;5089406;28;47296;-75
2023/08/22 06:27:14;;;;;;;14.88;7.80;;;19.90;99.90;;;;;;5089122;28;46119;-75
2023/08/22 06:29:41;;;;;;;13.05;7.13;;;19.90;99.90;;;;;;5089398;28;44948;-75
2023/08/22 06:32:09;;;;;;;15.45;7.68;;;19.80;99.90;;;;;;5089415;28;45113;-75
2023/08/22 06:34:36;;;;;;;17.90;7.20;;;19.80;99.90;;;;;;5089065;28;45170;-75
2023/08/22 06:37:04;;;;;;;13.93;7.68;;;19.90;99.90;;;;;;5088919;28;45086;-75
2023/08/22 06:39:31;;;;;;;15.40;6.85;;;19.90;99.90;;;;;;5089081;28;45000;-75
2023/08/22 06:41:58;;;;;;;13.95;7.35;;;19.90;99.90;;;;;;5091517;28;45374;-75
2023/08/22 06:44:24;;;;;;;15.85;7.18;;;20.00;99.90;;;;;;5089093;28;48159;-75
2023/08/22 06:46:51;;;;;;;14.05;8.00;;;20.10;99.90;;;;;;5089022;28;45102;-75
2023/08/22 06:49:19;;;;;;;22.67;8.38;;;20.10;99.90;;;;;;5089144;28;45060;-75
2023/08/22 06:51:46;;;;;;;26.77;8.25;;;20.20;99.90;;;;;;5089004;28;45106;-75
2023/08/22 06:54:13;;;;;;;19.58;7.25;;;20.30;99.90;;;;;;5088851;28;48137;-75
2023/08/22 06:56:39;;;;;;;14.23;6.88;;;20.40;99.90;;;;;;5088915;28;45213;-75
2023/08/22 06:59:06;;;;;;;21.42;8.23;;;20.50;99.90;;;;;;5088883;28;45113;-75
2023/08/22 07:01:33;;;;;;;25.42;7.95;;;20.50;99.90;;;;;;5088797;28;45010;-75
2023/08/22 07:04:00;;;;;;;16.50;8.02;;;20.40;99.90;;;;;;5088605;28;46030;-75
2023/08/22 07:06:28;;;;;;;17.15;8.15;;;20.50;99.90;;;;;;5088551;28;44940;-75
2023/08/22 07:08:55;;;;;;;28.42;7.75;;;20.70;99.90;;;;;;5088751;28;45229;-75
2023/08/22 07:11:22;;;;;;;27.55;7.70;;;20.80;99.90;;;;;;5088589;28;45007;-75
2023/08/22 07:13:50;;;;;;;22.17;7.43;;;20.90;99.90;;;;;;5088391;28;46782;-75
2023/08/22 07:16:17;;;;;;;26.00;8.45;;;21.00;99.90;;;;;;5088410;28;45095;-75
2023/08/22 07:18:44;;;;;;;26.52;8.13;;;21.10;99.90;;;;;;5088764;28;45128;-75
2023/08/22 07:21:11;;;;;;;25.85;7.68;;;21.10;99.90;;;;;;5088498;28;45272;-77
2023/08/22 07:23:39;;;;;;;26.90;8.02;;;21.20;99.90;;;;;;5087874;28;46803;-76
2023/08/22 07:26:05;;;;;;;23.15;7.05;;;21.30;99.90;;;;;;5088394;28;45021;-76
2023/08/22 07:28:33;;;;;;;25.30;7.93;;;21.30;99.90;;;;;;5088271;28;45200;-78
2023/08/22 07:31:00;;;;;;;20.75;8.27;;;21.30;99.90;;;;;;5088434;28;45231;-77
2023/08/22 07:33:27;;;;;;;34.70;7.80;;;21.40;99.90;;;;;;5090900;28;48297;-77
2023/08/22 07:35:54;;;;;;;28.00;8.50;;;21.40;99.90;;;;;;5084930;28;45909;-74
2023/08/22 07:38:20;;;;;;;26.60;8.65;;;21.40;99.90;;;;;;5075020;28;45143;-75
2023/08/22 07:40:49;;;;;;;22.50;7.63;;;21.40;99.90;;;;;;5086065;28;45119;-76
2023/08/22 07:43:15;;;;;;;30.15;8.13;;;21.40;99.90;;;;;;5087923;28;45468;-77
2023/08/22 07:45:42;;;;;;;26.83;7.85;;;21.60;99.90;;;;;;5088274;28;45599;-77
2023/08/22 07:48:09;;;;;;;27.63;7.85;;;21.60;99.90;;;;;;5088483;28;45081;-78
2023/08/22 07:50:36;;;;;;;24.35;7.55;;;21.70;99.90;;;;;;5088371;28;45102;-78
2023/08/22 07:53:06;;;;;;;38.05;8.40;;;21.70;99.90;;;;;;5088045;28;47311;-78
2023/08/22 07:55:33;;;;;;;26.52;6.78;;;21.70;99.90;;;;;;5087872;28;45252;-78
2023/08/22 07:58:02;;;;;;;19.73;5.35;;;21.70;99.90;;;;;;5087844;28;45052;-78
2023/08/22 08:00:29;;;;;;;20.33;6.97;;;21.80;99.90;;;;;;5087868;28;45383;-77
2023/08/22 08:02:56;;;;;;;27.73;7.13;;;21.90;99.90;;;;;;5087471;28;47499;-77
2023/08/22 08:05:23;;;;;;;27.73;7.15;;;21.80;99.90;;;;;;5087584;28;45066;-77
2023/08/22 08:07:50;;;;;;;28.02;7.45;;;21.80;99.90;;;;;;5088031;28;45130;-77
2023/08/22 08:10:16;;;;;;;21.63;7.03;;;21.70;99.90;;;;;;5087770;28;45028;-77
2023/08/22 08:12:43;;;;;;;27.42;6.88;;;21.80;99.90;;;;;;5086665;27;48435;-77
2023/08/22 08:15:11;;;;;;;27.42;6.63;;;21.80;99.90;;;;;;5087890;28;45206;-77
2023/08/22 08:17:38;;;;;;;24.25;6.03;;;21.90;99.90;;;;;;5087770;28;45051;-77
2023/08/22 08:20:06;;;;;;;19.05;5.00;;;21.80;99.90;;;;;;5087768;28;45160;-76
2023/08/22 08:22:33;;;;;;;16.20;4.53;;;21.90;99.90;;;;;;5087538;28;46580;-76
2023/08/22 08:25:02;;;;;;;16.85;4.55;;;22.00;99.90;;;;;;5087649;28;45533;-76
2023/08/22 08:27:29;;;;;;;9.95;3.67;;;22.10;99.90;;;;;;5090470;28;45141;-76
2023/08/22 08:29:56;;;;;;;12.38;4.03;;;22.10;99.90;;;;;;5087334;28;44949;-76
2023/08/22 08:32:25;;;;;;;14.32;4.82;;;22.10;99.90;;;;;;5087129;28;45401;-76
2023/08/22 08:34:51;;;;;;;16.95;4.10;;;22.20;99.90;;;;;;5087395;28;45095;-76
2023/08/22 08:37:18;;;;;;;10.38;3.63;;;22.20;99.90;;;;;;5087262;28;45051;-76
2023/08/22 08:39:45;;;;;;;20.13;5.20;;;22.30;99.90;;;;;;5087066;28;45144;-75
2023/08/22 08:42:13;;;;;;;13.63;4.63;;;22.30;99.90;;;;;;5086996;28;47431;-75
2023/08/22 08:44:40;;;;;;;11.20;4.65;;;22.40;99.90;;;;;;5089434;27;45132;-71
2023/08/22 08:47:08;;;;;;;10.07;3.92;;;22.30;99.90;;;;;;5089408;27;45116;-75
2023/08/22 08:49:36;;;;;;;15.52;4.82;;;22.30;99.90;;;;;;5095543;27;45340;-75
2023/08/22 08:52:04;;;;;;;11.00;4.28;;;22.30;99.90;;;;;;5107646;27;45197;-78
2023/08/22 08:54:32;;;;;;;11.05;4.32;;;22.40;99.90;;;;;;5107333;27;46158;-78
2023/08/22 08:57:00;;;;;;;16.42;3.85;;;22.50;99.90;;;;;;5107594;27;44963;-78
2023/08/22 08:59:27;;;;;;;14.80;5.43;;;22.50;99.90;;;;;;5092186;27;45462;-75
2023/08/22 09:01:54;;;;;;;13.68;4.85;;;22.60;99.90;;;;;;5091113;27;45247;-75
2023/08/22 09:04:22;;;;;;;9.18;4.70;;;22.60;99.90;;;;;;5085392;28;45547;-77
2023/08/22 09:06:51;;;;;;;7.07;3.72;;;22.70;99.90;;;;;;5086831;28;45113;-78
2023/08/22 09:09:18;;;;;;;13.82;5.60;;;22.80;99.90;;;;;;5086911;28;45018;-78
2023/08/22 09:11:47;;;;;;;16.02;5.15;;;22.80;99.90;;;;;;5086549;28;46183;-78
2023/08/22 09:14:18;;;;;;;11.02;4.70;;;22.80;99.90;;;;;;5086924;28;44991;-77
2023/08/22 09:16:45;;;;;;;18.35;5.28;;;22.90;99.90;;;;;;5087100;28;45095;-77
2023/08/22 09:19:12;;;;;;;13.45;4.22;;;22.90;99.90;;;;;;5085292;28;45312;-75
2023/08/22 09:21:39;;;;;;;8.55;4.13;;;22.90;99.90;;;;;;5083756;28;46570;-76
2023/08/22 09:24:09;;;;;;;18.05;4.90;;;22.90;99.90;;;;;;5085581;28;45075;-78
2023/08/22 09:26:37;;;;;;;10.82;3.42;;;22.90;99.90;;;;;;5086937;28;45213;-79
2023/08/22 09:29:07;;;;;;;12.25;4.50;;;23.00;99.90;;;;;;5086609;28;45443;-78
2023/08/22 09:31:35;;;;;;;10.60;4.13;;;23.00;99.90;;;;;;5086358;28;45679;-78
2023/08/22 09:34:09;;;;;;;13.88;3.90;;;23.10;99.90;;;;;;5086773;28;45086;-78
2023/08/22 09:36:45;;;;;;;9.30;3.15;;;23.10;99.70;;;;;;5086681;28;45058;-78
2023/08/22 09:39:16;;;;;;;10.82;3.08;;;23.20;99.90;;;;;;5086253;28;45419;-78
2023/08/22 09:41:43;;;;;;;9.13;2.60;;;23.30;99.90;;;;;;5086626;28;45680;-77
2023/08/22 09:44:11;;;;;;;11.77;4.10;;;23.30;96.70;;;;;;5086143;28;45197;-78
2023/08/22 09:46:41;;;;;;;8.10;3.42;;;23.40;97.00;;;;;;5086928;28;45071;-78
2023/08/22 09:49:11;;;;;;;12.43;3.60;;;23.40;98.30;;;;;;5086370;28;45301;-77
2023/08/22 09:51:39;;;;;;;12.40;3.38;;;23.30;97.40;;;;;;5086544;28;46526;-78
2023/08/22 09:54:07;;;;;;;10.00;2.97;;;23.40;96.90;;;;;;5086431;28;45193;-78
2023/08/22 09:56:36;;;;;;;6.95;2.78;;;23.50;96.80;;;;;;5086396;28;45223;-77
2023/08/22 09:59:04;;;;;;;7.32;2.63;;;23.50;95.60;;;;;;5086482;28;45231;-76
2023/08/22 10:01:33;;;;;;;13.63;3.45;;;23.50;96.80;;;;;;5085693;28;45412;-77
2023/08/22 10:04:03;;;;;;;9.38;2.65;;;23.60;95.80;;;;;;5086181;28;45704;-77
2023/08/22 10:06:33;;;;;;;14.32;3.60;;;23.60;94.70;;;;;;5086230;28;45067;-76
2023/08/22 10:09:01;;;;;;;7.05;3.10;;;23.70;94.50;;;;;;5086320;28;45452;-77
2023/08/22 10:11:29;;;;;;;3.00;2.05;;;23.60;96.70;;;;;;5089144;28;46514;-76
2023/08/22 10:13:57;;;;;;;17.45;3.65;;;23.60;97.10;;;;;;5085890;28;45796;-77
2023/08/22 10:16:30;;;;;;;11.73;3.90;;;23.60;96.30;;;;;;5085716;28;45068;-77
2023/08/22 10:19:03;;;;;;;12.38;3.47;;;23.50;96.60;;;;;;5086327;28;44978;-76
2023/08/22 10:21:41;;;;;;;8.07;3.15;;;23.60;97.10;;;;;;5085646;28;46350;-76
2023/08/22 10:24:08;;;;;;;13.13;5.18;;;23.50;98.10;;;;;;5085976;28;45102;-76
2023/08/22 10:26:48;;;;;;;9.23;2.78;;;23.60;97.80;;;;;;5085975;28;45157;-76
2023/08/22 10:29:18;;;;;;;14.48;3.25;;;23.60;98.20;;;;;;5086056;28;45326;-76
2023/08/22 10:32:22;;;;;;;8.50;3.10;;;23.70;96.60;;;;;;5085681;28;45540;-76
2023/08/22 10:35:25;;;;;;;3.90;2.50;;;23.70;96.00;;;;;;5086439;27;45052;-76
2023/08/22 10:37:53;;;;;;;9.77;2.88;;;23.50;98.10;;;;;;5089337;28;44984;-76
2023/08/22 10:40:38;;;;;;;9.25;2.80;;;23.30;98.20;;;;;;5089023;28;45557;-75
2023/08/22 10:43:13;;;;;;;5.78;2.78;;;23.50;98.20;;;;;;5089336;28;46238;-76
2023/08/22 10:45:50;;;;;;;16.10;3.33;;;23.60;95.80;;;;;;5089259;28;45061;-76
2023/08/22 10:48:19;;;;;;;7.97;3.25;;;23.70;97.40;;;;;;5089265;28;45093;-76
2023/08/22 10:50:48;;;;;;;16.58;3.15;;;23.70;96.50;;;;;;5089281;28;45133;-76
2023/08/22 10:53:21;;;;;;;7.65;3.20;;;23.80;95.60;;;;;;5089041;28;48162;-76
2023/08/22 10:55:49;;;;;;;6.93;3.20;;;23.80;96.10;;;;;;5089117;28;45096;-75
2023/08/22 10:58:41;;;;;;;8.57;2.97;;;23.80;95.90;;;;;;5089128;28;45089;-76
2023/08/22 11:01:14;;;;;;;7.65;2.80;;;23.70;96.90;;;;;;5090085;28;45157;-76
2023/08/22 11:03:42;;;;;;;7.20;2.78;;;23.60;96.70;;;;;;5085177;28;47585;-74
2023/08/22 11:06:14;;;;;;;7.32;2.55;;;23.60;96.10;;;;;;5085108;28;45271;-73
2023/08/22 11:08:42;;;;;;;9.38;3.17;;;23.60;95.40;;;;;;5082354;28;45223;-65
2023/08/22 11:11:09;;;;;;;3.58;1.85;;;23.50;96.10;;;;;;5076173;28;45440;-68
2023/08/22 11:13:38;;;;;;;11.20;3.00;;;23.60;95.30;;;;;;5081518;28;45224;-68
2023/08/22 11:16:09;;;;;;;6.03;1.92;;;23.70;96.00;;;;;;5080368;28;45188;-67
2023/08/22 11:18:37;;;;;;;10.85;2.50;;;23.60;96.40;;;;;;5084097;28;45244;-71
2023/08/22 11:21:04;;;;;;;8.15;2.03;;;23.60;95.00;;;;;;5082153;28;45201;-70
2023/08/22 11:23:34;;;;;;;13.18;2.53;;;23.50;94.90;;;;;;5082553;27;45337;-69
2023/08/22 11:26:02;;;;;;;14.52;2.58;;;23.50;95.40;;;;;;5076281;28;45374;-70
2023/08/22 11:28:36;;;;;;;10.55;2.42;;;23.50;95.30;;;;;;5073353;27;45162;-69
2023/08/22 11:31:04;;;;;;;8.45;1.80;;;23.50;95.30;;;;;;5082546;27;45279;-69
2023/08/22 11:33:47;;;;;;;5.35;2.30;;;23.50;95.00;;;;;;5080034;27;47246;-69
2023/08/22 11:36:14;;;;;;;10.05;3.35;;;23.50;95.00;;;;;;5084046;28;45141;-68
2023/08/22 11:38:42;;;;;;;7.53;2.58;;;23.50;95.70;;;;;;5079395;27;45182;-68
2023/08/22 11:41:09;;;;;;;9.55;2.67;;;23.50;96.50;;;;;;5074560;28;45306;-68
2023/08/22 11:43:36;;;;;;;10.73;2.78;;;23.40;97.40;;;;;;5079040;27;47295;-68
2023/08/22 11:46:10;;;;;;;7.97;2.65;;;23.40;97.10;;;;;;5082314;27;45241;-69
2023/08/22 11:48:36;;;;;;;12.52;3.00;;;23.50;94.80;;;;;;5078775;27;45300;-69
2023/08/22 11:51:05;;;;;;;8.80;2.15;;;23.50;94.00;;;;;;5078340;27;45270;-69
2023/08/22 11:53:32;;;;;;;6.95;2.40;;;23.50;94.60;;;;;;5084250;27;46522;-69
2023/08/22 11:55:58;;;;;;;9.32;2.90;;;23.40;93.80;;;;;;5084603;27;45161;-69
2023/08/22 11:58:25;;;;;;;8.65;2.97;;;23.40;96.70;;;;;;5083068;27;45359;-68
2023/08/22 12:00:56;;;;;;;9.85;3.17;;;23.40;96.30;;;;;;5081611;27;45361;-68
2023/08/22 12:03:23;;;;;;;10.98;3.58;;;23.30;96.20;;;;;;5082981;27;46676;-68
2023/08/22 12:05:49;;;;;;;10.85;3.00;;;23.30;97.40;;;;;;5080535;28;45197;-68
2023/08/22 12:08:19;;;;;;;9.30;3.55;;;23.40;97.10;;;;;;5084477;28;45130;-68
2023/08/22 12:10:48;;;;;;;8.57;3.58;;;23.40;96.00;;;;;;5081556;28;45156;-68
2023/08/22 12:13:16;;;;;;;10.27;3.45;;;23.50;95.30;;;;;;5078456;28;48294;-68
2023/08/22 12:15:44;;;;;;;12.30;3.65;;;23.50;96.70;;;;;;5081346;28;45368;-68
2023/08/22 12:18:11;;;;;;;9.23;3.33;;;23.50;98.20;;;;;;5082139;28;45065;-68
2023/08/22 12:20:40;;;;;;;11.63;3.70;;;23.40;96.10;;;;;;5078672;28;45372;-69
2023/08/22 12:23:08;;;;;;;9.70;3.97;;;23.50;99.50;;;;;;5081312;28;45262;-69
2023/08/22 12:25:37;;;;;;;7.15;3.17;;;23.60;96.90;;;;;;5083331;27;45207;-69
2023/08/22 12:28:05;;;;;;;10.75;3.30;;;23.50;96.90;;;;;;5083226;28;45103;-70
2023/08/22 12:30:33;;;;;;;12.88;3.70;;;23.50;95.30;;;;;;5083405;28;45121;-69
2023/08/22 12:33:02;;;;;;;10.25;3.53;;;23.50;95.30;;;;;;5082657;28;46532;-70
2023/08/22 12:35:29;;;;;;;11.20;3.20;;;23.40;97.00;;;;;;5081056;27;45311;-70
2023/08/22 12:37:55;;;;;;;10.88;3.15;;;23.40;96.80;;;;;;5072470;27;45280;-70
2023/08/22 12:40:22;;;;;;;3.38;2.17;;;23.40;96.40;;;;;;5074807;28;45359;-70
2023/08/22 12:42:50;;;;;;;7.88;2.67;;;23.50;99.50;;;;;;5079064;27;47115;-70
2023/08/22 12:45:17;;;;;;;10.63;3.22;;;23.50;99.90;;;;;;5072749;28;45268;-70
2023/08/22 12:47:44;;;;;;;6.97;2.78;;;23.60;97.50;;;;;;5082367;27;45274;-70
2023/08/22 12:50:11;;;;;;;8.23;2.78;;;23.60;96.60;;;;;;5083354;28;45144;-70
2023/08/22 12:52:38;;;;;;;8.65;2.67;;;23.60;95.80;;;;;;5082508;27;45472;-70
2023/08/22 12:55:07;;;;;;;5.50;2.22;;;23.50;95.80;;;;;;5081882;28;45232;-71
2023/08/22 12:57:35;;;;;;;6.18;2.08;;;23.50;99.80;;;;;;5080619;27;45503;-71